CST,Max TemperatureF,Mean TemperatureF,Min TemperatureF,Max Dew PointF,MeanDew PointF,Min DewpointF,Max Humidity, Mean Humidity, Min Humidity, Max Sea Level PressureIn, Mean Sea Level PressureIn, Min Sea Level PressureIn, Max VisibilityMiles, Mean VisibilityMiles, Min VisibilityMiles, Max Wind SpeedMPH, Mean Wind SpeedMPH, Max Gust SpeedMPH,PrecipitationIn, CloudCover, Events, WindDirDegrees
2013-2-1,26,15,6,14,5,-8,92,60,49,30.53,30.41,30.30,10,10,10,14,5,18,0.00,2,,234
2013-2-2,41,34,26,25,20,12,86,63,49,30.29,30.14,30.07,10,10,10,16,10,21,0.00,6,,234
2013-2-3,32,26,21,27,21,16,93,77,55,30.19,30.11,30.01,10,8,0,12,2,23,0.06,5,,286
2013-2-4,48,36,24,39,28,16,93,73,61,30.08,29.92,29.82,10,10,10,21,7,26,0.00,5,,196
2013-2-5,53,42,30,36,30,25,86,71,50,30.14,29.99,29.91,10,9,6,13,5,17,0.00,3,,274
2013-2-6,48,34,21,34,28,19,100,73,54,30.28,30.19,30.13,10,9,5,8,2,,0.00,0,,107
2013-2-7,64,48,33,48,38,28,94,73,52,30.11,29.98,29.85,10,9,3,14,6,21,0.05,3,,138
2013-2-8,39,36,32,37,28,25,93,76,70,30.41,30.26,30.01,10,10,5,13,7,20,0.03,8,,3
2013-2-9,44,37,30,34,28,25,81,69,57,30.40,30.29,30.09,10,10,10,12,6,16,0.00,5,,116
2013-2-10,53,46,39,50,42,34,93,84,71,30.10,29.85,29.67,10,10,5,18,9,24,0.42,7,Thunderstorm,155
2013-2-11,50,39,28,37,28,25,93,58,43,30.17,30.02,29.79,10,10,9,24,14,30,0.00,0,,251
2013-2-12,46,34,23,34,27,19,93,74,50,30.18,30.09,29.94,10,10,10,8,1,,0.00,2,,45
2013-2-13,50,42,35,36,32,28,87,70,46,29.94,29.89,29.85,10,10,8,17,6,17,0.00,3,,237
2013-2-14,55,44,33,37,32,28,93,67,44,30.06,29.94,29.87,10,10,10,14,7,21,0.00,0,,237
2013-2-15,39,32,24,34,23,12,87,66,38,30.25,30.19,30.06,10,10,10,10,2,17,0.00,3,,324
2013-2-16,33,26,19,21,15,10,93,63,38,30.25,30.22,30.19,10,10,10,9,2,,0.00,1,,310
2013-2-17,44,30,15,21,18,10,93,62,37,30.26,30.16,30.03,10,10,10,14,4,20,0.00,1,,135
2013-2-18,55,44,33,46,37,21,93,73,56,30.02,29.85,29.64,10,10,6,32,12,38,0.33,4,,187
2013-2-19,37,30,24,30,18,10,75,59,48,30.29,30.11,29.87,10,10,10,16,10,28,0.00,2,,284
2013-2-20,26,22,19,16,12,9,86,62,50,30.41,30.34,30.29,10,10,10,9,4,,0.00,0,,2
2013-2-21,33,25,17,30,21,12,93,82,69,30.34,30.12,29.84,10,8,0,25,6,32,0.28,5,,62
2013-2-22,37,30,24,32,27,21,87,79,65,30.09,29.97,29.83,10,8,0,17,3,18,0.04,6,,245
2013-2-23,35,27,19,21,20,16,93,75,52,30.08,30.05,30.01,10,9,3,10,1,,0.00,0,,300
2013-2-24,46,32,19,28,24,16,100,73,49,30.17,30.11,30.05,10,8,4,9,2,,0.00,0,,86
2013-2-25,46,37,28,34,28,25,86,67,53,30.10,29.93,29.60,10,10,9,23,10,31,0.01,2,,65
2013-2-26,48,42,35,43,37,28,93,85,61,29.65,29.46,29.39,10,8,2,25,13,28,0.72,8,,139
2013-2-27,37,34,32,32,29,27,87,79,70,29.88,29.79,29.66,10,9,3,17,11,28,0.01,8,,265
2013-2-28,35,34,32,30,28,27,87,79,75,30.10,30.00,29.88,10,7,3,12,7,17,0.01,8,,291